Time;durP1;ratioP1;P1;durP2;ratioP2;P2;SDS_P1;SDS_P2;PMS_P1;PMS_P2;Temp;Humidity;BMP_temperature;BMP_pressure;BME280_temperature;BME280_humidity;BME280_pressure;Samples;Min_cycle;Max_cycle;Signal;HPM_P1;HPM_P2
2023/03/28 00:00:59;;;;;;;;;13.50;12.50;;;;;;;;5047903;28;11457;-93
2023/03/28 00:03:27;;;;;;;;;15.00;10.50;;;;;;;;5050111;28;12409;-92
2023/03/28 00:05:59;;;;;;;;;10.50;10.00;;;;;;;;5049887;28;11607;-93
2023/03/28 00:08:28;;;;;;;;;6.50;6.50;;;;;;;;5048561;28;11603;-92
2023/03/28 00:11:03;;;;;;;;;11.00;11.00;;;;;;;;5051816;28;12299;-92
2023/03/28 00:13:30;;;;;;;;;9.75;8.00;;;;;;;;5056195;28;11798;-93
2023/03/28 00:16:03;;;;;;;;;7.50;7.50;;;;;;;;5056621;28;11534;-92
2023/03/28 00:18:31;;;;;;;;;7.75;5.00;;;;;;;;5051364;28;11458;-92
2023/03/28 00:21:00;;;;;;;;;12.75;9.25;;;;;;;;5051015;28;11490;-92
2023/03/28 00:23:28;;;;;;;;;8.00;5.75;;;;;;;;5049682;28;11515;-93
2023/03/28 00:25:56;;;;;;;;;5.00;5.00;;;;;;;;5050774;28;11576;-92
2023/03/28 00:28:25;;;;;;;;;6.25;4.50;;;;;;;;5046227;28;11597;-91
2023/03/28 00:30:54;;;;;;;;;6.00;4.75;;;;;;;;5049577;28;11415;-92
2023/03/28 00:33:22;;;;;;;;;6.00;6.00;;;;;;;;5050083;28;11577;-93
2023/03/28 00:35:50;;;;;;;;;6.25;4.75;;;;;;;;5038328;28;11520;-91
2023/03/28 00:38:18;;;;;;;;;7.50;6.00;;;;;;;;5041268;28;11604;-94
2023/03/28 00:40:47;;;;;;;;;8.75;6.25;;;;;;;;5059044;28;11500;-93
2023/03/28 00:43:14;;;;;;;;;6.50;5.00;;;;;;;;5057333;28;11605;-93
2023/03/28 00:45:42;;;;;;;;;5.50;5.50;;;;;;;;5031343;28;11452;-93
2023/03/28 00:48:14;;;;;;;;;5.00;5.00;;;;;;;;5049840;28;11518;-92
2023/03/28 00:50:45;;;;;;;;;3.50;3.50;;;;;;;;5047131;28;11658;-93
2023/03/28 00:53:15;;;;;;;;;8.25;5.75;;;;;;;;5037773;28;11498;-92
2023/03/28 00:55:49;;;;;;;;;5.00;4.25;;;;;;;;5041521;28;11526;-92
2023/03/28 00:58:21;;;;;;;;;6.67;6.67;;;;;;;;5047338;28;11546;-91
2023/03/28 01:00:48;;;;;;;;;6.75;2.00;;;;;;;;5047502;28;11365;-92
2023/03/28 01:03:17;;;;;;;;;4.25;4.25;;;;;;;;5050006;28;11534;-90
2023/03/28 01:05:46;;;;;;;;;5.00;5.00;;;;;;;;5050134;28;11633;-91
2023/03/28 01:08:19;;;;;;;;;5.25;3.50;;;;;;;;5056837;28;11570;-89
2023/03/28 01:10:48;;;;;;;;;5.00;5.00;;;;;;;;5053221;28;11469;-90
2023/03/28 01:13:18;;;;;;;;;5.50;2.00;;;;;;;;5052760;28;11490;-90
2023/03/28 01:15:48;;;;;;;;;4.75;4.75;;;;;;;;5052065;28;12157;-90
2023/03/28 01:18:17;;;;;;;;;2.50;2.00;;;;;;;;5057506;28;11546;-91
2023/03/28 01:21:34;;;;;;;;;5.50;5.00;;;;;;;;5057492;28;11557;-90
2023/03/28 01:24:37;;;;;;;;;5.00;5.00;;;;;;;;5058956;28;11507;-90
2023/03/28 01:27:09;;;;;;;;;5.00;5.00;;;;;;;;5051391;28;11533;-90
2023/03/28 01:30:00;;;;;;;;;5.00;5.00;;;;;;;;5052919;28;11595;-92
2023/03/28 01:33:04;;;;;;;;;5.50;4.50;;;;;;;;5012827;28;11545;-91
2023/03/28 01:35:50;;;;;;;;;5.00;2.67;;;;;;;;5051319;28;11501;-91
2023/03/28 01:38:24;;;;;;;;;5.33;5.33;;;;;;;;5048990;28;11514;-89
2023/03/28 01:40:57;;;;;;;;;4.33;4.33;;;;;;;;5044309;28;11503;-93
2023/03/28 01:43:31;;;;;;;;;1.00;1.00;;;;;;;;5053236;28;11507;-90
2023/03/28 01:46:06;;;;;;;;;2.00;2.00;;;;;;;;5052905;28;11638;-91
2023/03/28 01:48:41;;;;;;;;;4.00;4.00;;;;;;;;5052765;28;11502;-91
2023/03/28 01:51:13;;;;;;;;;4.00;4.00;;;;;;;;5053022;28;11688;-94
2023/03/28 01:53:45;;;;;;;;;5.00;5.00;;;;;;;;5055038;28;11567;-93
2023/03/28 01:56:17;;;;;;;;;8.67;4.00;;;;;;;;5052679;28;11565;-91
2023/03/28 01:58:49;;;;;;;;;5.00;5.00;;;;;;;;5047872;28;11528;-91
2023/03/28 02:01:22;;;;;;;;;8.33;8.00;;;;;;;;5051914;28;11425;-90
2023/03/28 02:03:51;;;;;;;;;4.00;4.00;;;;;;;;5058906;28;11505;-89
2023/03/28 02:06:20;;;;;;;;;8.00;5.33;;;;;;;;5054601;28;11517;-90
2023/03/28 02:08:50;;;;;;;;;4.00;4.00;;;;;;;;5053202;28;11471;-91
2023/03/28 02:11:18;;;;;;;;;1.75;1.00;;;;;;;;5052015;28;11520;-91
2023/03/28 02:13:49;;;;;;;;;6.00;6.00;;;;;;;;5047186;28;11928;-90
2023/03/28 02:16:18;;;;;;;;;4.75;4.75;;;;;;;;5044776;28;11519;-90
2023/03/28 02:18:49;;;;;;;;;8.33;8.33;;;;;;;;5051631;28;11510;-91
2023/03/28 02:21:19;;;;;;;;;9.00;8.00;;;;;;;;5052240;28;11511;-92
2023/03/28 02:23:50;;;;;;;;;11.00;11.00;;;;;;;;5047830;28;11630;-92
2023/03/28 02:26:18;;;;;;;;;6.00;5.67;;;;;;;;5049976;28;11515;-91
2023/03/28 02:28:47;;;;;;;;;8.33;8.00;;;;;;;;5053590;28;11525;-91
2023/03/28 02:31:15;;;;;;;;;8.33;8.33;;;;;;;;5039743;28;11379;-92
2023/03/28 02:33:45;;;;;;;;;6.00;6.00;;;;;;;;5060601;28;11497;-91
2023/03/28 02:36:30;;;;;;;;;12.33;8.67;;;;;;;;5057009;28;11485;-91
2023/03/28 02:39:19;;;;;;;;;8.33;8.33;;;;;;;;5050156;28;11516;-90
2023/03/28 02:42:01;;;;;;;;;8.00;8.00;;;;;;;;5043330;28;11578;-90
2023/03/28 02:44:50;;;;;;;;;8.67;8.67;;;;;;;;5049032;28;11530;-91
2023/03/28 02:47:20;;;;;;;;;6.00;6.00;;;;;;;;5051308;28;11510;-92
2023/03/28 02:49:58;;;;;;;;;4.67;4.67;;;;;;;;5051977;28;11501;-90
2023/03/28 02:52:33;;;;;;;;;7.33;7.33;;;;;;;;5051860;28;11709;-91
2023/03/28 02:55:12;;;;;;;;;8.67;8.67;;;;;;;;5051355;28;11514;-91
2023/03/28 02:57:44;;;;;;;;;9.00;9.00;;;;;;;;5048132;28;11498;-89
2023/03/28 03:00:15;;;;;;;;;11.00;8.00;;;;;;;;5052608;28;11516;-91
2023/03/28 03:02:44;;;;;;;;;5.00;5.00;;;;;;;;5055650;28;11516;-90
2023/03/28 03:05:12;;;;;;;;;8.33;8.33;;;;;;;;5054875;28;11515;-88
2023/03/28 03:07:40;;;;;;;;;10.33;8.33;;;;;;;;5054736;28;11521;-89
2023/03/28 03:10:13;;;;;;;;;16.67;9.67;;;;;;;;5053648;28;12535;-90
2023/03/28 03:12:41;;;;;;;;;6.67;4.67;;;;;;;;5064237;28;11508;-90
2023/03/28 03:15:10;;;;;;;;;9.00;8.00;;;;;;;;5058558;28;11522;-89
2023/03/28 03:17:38;;;;;;;;;11.00;9.67;;;;;;;;5052764;28;11578;-91
2023/03/28 03:20:06;;;;;;;;;9.00;6.00;;;;;;;;5051821;28;11542;-92
2023/03/28 03:22:35;;;;;;;;;9.33;7.33;;;;;;;;5050770;28;11497;-93
2023/03/28 03:25:05;;;;;;;;;8.00;8.00;;;;;;;;5051038;28;11498;-93
2023/03/28 03:27:35;;;;;;;;;8.33;8.33;;;;;;;;5047939;28;11477;-89
2023/03/28 03:30:03;;;;;;;;;9.00;9.00;;;;;;;;5055013;28;11493;-90
2023/03/28 03:32:32;;;;;;;;;8.00;8.00;;;;;;;;5052390;28;11450;-91
2023/03/28 03:34:59;;;;;;;;;14.33;12.00;;;;;;;;5050593;28;11619;-90
2023/03/28 03:37:30;;;;;;;;;13.00;12.00;;;;;;;;5050875;28;11561;-89
2023/03/28 03:39:58;;;;;;;;;14.67;10.33;;;;;;;;5050058;28;11524;-90
2023/03/28 03:42:25;;;;;;;;;9.00;6.00;;;;;;;;5050081;28;11572;-92
2023/03/28 03:44:54;;;;;;;;;12.67;12.67;;;;;;;;5033383;28;11481;-90
2023/03/28 03:47:23;;;;;;;;;12.67;12.67;;;;;;;;5048920;28;11514;-91
2023/03/28 03:49:51;;;;;;;;;19.67;13.00;;;;;;;;5049908;28;11517;-90
2023/03/28 03:52:18;;;;;;;;;12.00;9.33;;;;;;;;5049479;28;11561;-91
2023/03/28 03:54:45;;;;;;;;;7.67;7.67;;;;;;;;5046327;28;11552;-92
2023/03/28 03:57:12;;;;;;;;;10.00;10.00;;;;;;;;5064621;28;11594;-90
2023/03/28 03:59:40;;;;;;;;;9.00;7.50;;;;;;;;5051369;28;11593;-90
2023/03/28 04:02:08;;;;;;;;;5.25;3.00;;;;;;;;5049763;28;11456;-89
2023/03/28 04:04:39;;;;;;;;;9.50;5.25;;;;;;;;5049606;28;11600;-89
2023/03/28 04:07:06;;;;;;;;;4.75;4.75;;;;;;;;5053900;28;11648;-89
2023/03/28 04:09:33;;;;;;;;;4.50;4.50;;;;;;;;5049670;28;11525;-89
2023/03/28 04:12:01;;;;;;;;;6.75;6.75;;;;;;;;5049420;28;11572;-89
2023/03/28 04:14:28;;;;;;;;;6.00;4.50;;;;;;;;5049792;28;11619;-89
2023/03/28 04:16:56;;;;;;;;;6.75;6.00;;;;;;;;5049147;28;11503;-90
2023/03/28 04:19:27;;;;;;;;;6.00;5.75;;;;;;;;5049297;28;11557;-89
2023/03/28 04:21:55;;;;;;;;;5.00;5.00;;;;;;;;5049351;28;11691;-91
2023/03/28 04:24:26;;;;;;;;;5.25;5.25;;;;;;;;5056518;28;11533;-89
2023/03/28 04:26:54;;;;;;;;;5.75;5.75;;;;;;;;5054567;28;11535;-90
2023/03/28 04:29:29;;;;;;;;;8.75;5.00;;;;;;;;5051111;28;11566;-89
2023/03/28 04:31:57;;;;;;;;;6.00;4.50;;;;;;;;5038019;28;11498;-89
2023/03/28 04:34:28;;;;;;;;;6.75;6.75;;;;;;;;5049558;28;11502;-91
2023/03/28 04:37:00;;;;;;;;;4.00;4.00;;;;;;;;5049697;28;11655;-91
2023/03/28 04:39:31;;;;;;;;;8.00;5.00;;;;;;;;5048722;28;11523;-92
2023/03/28 04:42:00;;;;;;;;;7.25;5.00;;;;;;;;5043599;28;12390;-89
2023/03/28 04:44:30;;;;;;;;;8.25;8.25;;;;;;;;5046834;28;11600;-89
2023/03/28 04:46:58;;;;;;;;;9.00;9.00;;;;;;;;5040910;28;11479;-90
2023/03/28 04:49:27;;;;;;;;;9.50;9.25;;;;;;;;5041103;28;11503;-90
2023/03/28 04:51:56;;;;;;;;;9.50;9.50;;;;;;;;5054115;28;11488;-91
2023/03/28 04:54:23;;;;;;;;;13.25;12.25;;;;;;;;5059477;28;11643;-89
2023/03/28 04:56:52;;;;;;;;;10.75;10.75;;;;;;;;5056203;28;11534;-90
2023/03/28 04:59:20;;;;;;;;;12.50;10.00;;;;;;;;5054596;28;11528;-90
2023/03/28 05:01:48;;;;;;;;;14.00;10.50;;;;;;;;5054131;28;11462;-89
2023/03/28 05:04:17;;;;;;;;;14.50;11.00;;;;;;;;5039850;28;11539;-89
2023/03/28 05:06:47;;;;;;;;;8.50;8.50;;;;;;;;5055584;28;11606;-90
2023/03/28 05:09:16;;;;;;;;;14.75;10.75;;;;;;;;5054136;28;11518;-90
2023/03/28 05:11:44;;;;;;;;;13.00;9.00;;;;;;;;5047565;28;11533;-89
2023/03/28 05:14:11;;;;;;;;;10.00;10.00;;;;;;;;5045133;28;11524;-89
2023/03/28 05:16:45;;;;;;;;;8.75;6.00;;;;;;;;5046748;28;11548;-89
2023/03/28 05:19:13;;;;;;;;;12.25;9.00;;;;;;;;5045645;28;11490;-92
2023/03/28 05:21:40;;;;;;;;;9.00;7.00;;;;;;;;5049429;28;11521;-90
2023/03/28 05:24:11;;;;;;;;;9.75;8.75;;;;;;;;5047022;28;11687;-90
2023/03/28 05:26:39;;;;;;;;;6.25;5.50;;;;;;;;5056808;28;11509;-90
2023/03/28 05:29:06;;;;;;;;;7.25;7.25;;;;;;;;5053781;28;11501;-89
2023/03/28 05:31:34;;;;;;;;;8.00;6.75;;;;;;;;5034139;28;11422;-90
2023/03/28 05:34:01;;;;;;;;;6.25;6.25;;;;;;;;5048798;28;11579;-89
2023/03/28 05:36:30;;;;;;;;;13.00;9.50;;;;;;;;5050722;28;11484;-89
2023/03/28 05:38:58;;;;;;;;;8.25;8.25;;;;;;;;5051845;28;11526;-88
2023/03/28 05:41:28;;;;;;;;;7.25;7.00;;;;;;;;5051736;28;11788;-89
2023/03/28 05:43:55;;;;;;;;;6.00;6.00;;;;;;;;5051839;28;11608;-91
2023/03/28 05:46:23;;;;;;;;;11.50;6.00;;;;;;;;5052840;28;11636;-93
2023/03/28 05:48:51;;;;;;;;;5.75;5.75;;;;;;;;5047453;28;11541;-90
2023/03/28 05:51:19;;;;;;;;;12.75;7.25;;;;;;;;5058824;28;11509;-87
2023/03/28 05:53:49;;;;;;;;;9.25;9.25;;;;;;;;5054518;28;11714;-89
2023/03/28 05:56:19;;;;;;;;;10.00;7.50;;;;;;;;5052463;28;11505;-89
2023/03/28 05:58:51;;;;;;;;;8.75;8.75;;;;;;;;5051643;28;11509;-89
2023/03/28 06:01:22;;;;;;;;;7.00;7.00;;;;;;;;5051203;28;11491;-91
2023/03/28 06:03:50;;;;;;;;;6.00;6.00;;;;;;;;5050742;28;11492;-94
2023/03/28 06:06:18;;;;;;;;;9.75;9.75;;;;;;;;5051341;28;11489;-92
2023/03/28 06:08:45;;;;;;;;;9.50;7.00;;;;;;;;5049094;28;11594;-74
2023/03/28 06:11:12;;;;;;;;;7.00;7.00;;;;;;;;5050361;28;11603;-75
2023/03/28 06:13:40;;;;;;;;;5.75;5.75;;;;;;;;5049872;28;11499;-75
2023/03/28 06:16:09;;;;;;;;;10.00;10.00;;;;;;;;5049414;28;11586;-75
2023/03/28 06:18:36;;;;;;;;;13.75;13.75;;;;;;;;5049126;28;11607;-73
2023/03/28 06:21:03;;;;;;;;;11.75;11.50;;;;;;;;5049739;28;12423;-77
2023/03/28 06:23:31;;;;;;;;;15.00;15.00;;;;;;;;5049096;28;12371;-77
2023/03/28 06:25:58;;;;;;;;;12.75;11.25;;;;;;;;5049059;28;11607;-75
2023/03/28 06:28:25;;;;;;;;;25.25;19.50;;;;;;;;5048965;28;11531;-75
2023/03/28 06:30:53;;;;;;;;;18.25;15.00;;;;;;;;5048115;28;11471;-74
2023/03/28 06:33:21;;;;;;;;;13.75;13.75;;;;;;;;5037757;28;11548;-73
2023/03/28 06:35:48;;;;;;;;;13.00;11.50;;;;;;;;5048557;28;12335;-74
2023/03/28 06:38:15;;;;;;;;;11.50;9.00;;;;;;;;5046480;28;11556;-73
2023/03/28 06:40:43;;;;;;;;;7.50;7.50;;;;;;;;5047718;28;11493;-72
2023/03/28 06:43:10;;;;;;;;;5.75;5.75;;;;;;;;5048916;28;11521;-73
2023/03/28 06:45:37;;;;;;;;;10.25;10.25;;;;;;;;5047675;28;11482;-74
2023/03/28 06:48:05;;;;;;;;;6.25;6.25;;;;;;;;5035407;28;12372;-72
2023/03/28 06:50:33;;;;;;;;;6.00;6.00;;;;;;;;5043269;28;11535;-71
2023/03/28 06:53:00;;;;;;;;;5.25;5.25;;;;;;;;5037400;28;11494;-73
2023/03/28 06:55:27;;;;;;;;;9.00;9.00;;;;;;;;5047465;28;11609;-71
2023/03/28 06:57:55;;;;;;;;;12.50;11.00;;;;;;;;5038301;28;11463;-71
2023/03/28 07:00:22;;;;;;;;;9.75;7.50;;;;;;;;5049295;28;11558;-73
2023/03/28 07:02:50;;;;;;;;;7.00;5.00;;;;;;;;5051630;28;11522;-74
2023/03/28 07:05:17;;;;;;;;;9.00;7.00;;;;;;;;5048399;28;11511;-71
2023/03/28 07:07:46;;;;;;;;;10.00;7.00;;;;;;;;5048368;28;11560;-73
2023/03/28 07:10:13;;;;;;;;;10.75;5.00;;;;;;;;5047143;28;11487;-74
2023/03/28 07:12:40;;;;;;;;;7.75;7.75;;;;;;;;5044423;28;11518;-72
2023/03/28 07:15:08;;;;;;;;;6.00;6.00;;;;;;;;5031597;28;11555;-73
2023/03/28 07:17:35;;;;;;;;;4.25;3.50;;;;;;;;5047275;28;11504;-74
2023/03/28 07:20:03;;;;;;;;;6.00;3.00;;;;;;;;5047540;28;11508;-72
2023/03/28 07:22:30;;;;;;;;;2.50;2.50;;;;;;;;5047249;28;11486;-72
2023/03/28 07:24:59;;;;;;;;;3.50;3.50;;;;;;;;5047363;28;11667;-72
2023/03/28 07:27:26;;;;;;;;;6.00;6.00;;;;;;;;5038664;28;11508;-72
2023/03/28 07:29:53;;;;;;;;;6.25;5.00;;;;;;;;5045120;28;11640;-72
2023/03/28 07:32:21;;;;;;;;;5.50;5.50;;;;;;;;5046865;28;11455;-72
2023/03/28 07:34:48;;;;;;;;;6.00;3.00;;;;;;;;5046738;28;11681;-72
2023/03/28 07:37:15;;;;;;;;;5.25;5.00;;;;;;;;5047672;28;11484;-73
2023/03/28 07:39:43;;;;;;;;;4.25;4.25;;;;;;;;5046684;28;11515;-73
2023/03/28 07:42:13;;;;;;;;;8.50;6.50;;;;;;;;5045815;28;11661;-73
2023/03/28 07:44:40;;;;;;;;;4.50;4.50;;;;;;;;5046306;28;11486;-72
2023/03/28 07:47:08;;;;;;;;;5.25;4.25;;;;;;;;5045973;28;12265;-72
2023/03/28 07:49:36;;;;;;;;;6.00;6.00;;;;;;;;5040601;28;12269;-74
2023/03/28 07:52:03;;;;;;;;;5.00;5.00;;;;;;;;5042160;28;11507;-74
2023/03/28 07:54:31;;;;;;;;;6.75;4.25;;;;;;;;5047413;28;11476;-72
2023/03/28 07:56:59;;;;;;;;;3.25;3.25;;;;;;;;5027318;28;11630;-72
2023/03/28 07:59:28;;;;;;;;;4.50;3.75;;;;;;;;5038264;28;11533;-73
2023/03/28 08:01:55;;;;;;;;;3.25;3.25;;;;;;;;5030853;28;11611;-74
2023/03/28 08:04:22;;;;;;;;;8.00;4.25;;;;;;;;5038010;28;11931;-74
2023/03/28 08:06:51;;;;;;;;;3.25;3.00;;;;;;;;5045778;28;11524;-76
2023/03/28 08:09:19;;;;;;;;;3.00;2.25;;;;;;;;5046930;28;11496;-72
2023/03/28 08:11:47;;;;;;;;;3.25;3.25;;;;;;;;5046115;28;11523;-75
2023/03/28 08:14:15;;;;;;;;;4.50;3.75;;;;;;;;5047437;28;11470;-73
2023/03/28 08:16:45;;;;;;;;;3.50;3.50;;;;;;;;5046136;28;11507;-73
2023/03/28 08:19:12;;;;;;;;;6.00;3.00;;;;;;;;5046712;28;11582;-74
2023/03/28 08:21:39;;;;;;;;;2.00;2.00;;;;;;;;5045960;28;11571;-73
2023/03/28 08:24:09;;;;;;;;;3.75;3.00;;;;;;;;5046684;28;11465;-72
2023/03/28 08:26:37;;;;;;;;;2.25;2.25;;;;;;;;5046010;28;11429;-72
2023/03/28 08:29:05;;;;;;;;;3.00;3.00;;;;;;;;5046651;28;11429;-72
2023/03/28 08:31:32;;;;;;;;;4.50;3.00;;;;;;;;5045601;28;11415;-72
2023/03/28 08:34:01;;;;;;;;;2.50;2.50;;;;;;;;5047264;28;11486;-75
2023/03/28 08:36:28;;;;;;;;;3.25;3.25;;;;;;;;5034495;28;11458;-76
2023/03/28 08:38:59;;;;;;;;;4.00;4.00;;;;;;;;5047288;28;11980;-75
2023/03/28 08:41:40;;;;;;;;;2.00;2.00;;;;;;;;5047516;28;11525;-75
2023/03/28 08:44:24;;;;;;;;;2.25;2.25;;;;;;;;5046740;28;11547;-76
2023/03/28 08:46:55;;;;;;;;;4.25;3.00;;;;;;;;5047159;28;12306;-75
2023/03/28 08:49:24;;;;;;;;;2.75;2.75;;;;;;;;5047312;28;11543;-75
2023/03/28 08:51:56;;;;;;;;;3.00;2.25;;;;;;;;5048159;28;11544;-76
2023/03/28 08:54:24;;;;;;;;;6.25;4.00;;;;;;;;5049674;28;11433;-75
2023/03/28 08:56:54;;;;;;;;;5.25;2.75;;;;;;;;5051541;28;11445;-75
2023/03/28 08:59:25;;;;;;;;;3.50;3.50;;;;;;;;5049347;28;11453;-75
2023/03/28 09:01:52;;;;;;;;;2.00;2.00;;;;;;;;5040290;28;11393;-75
2023/03/28 09:04:25;;;;;;;;;3.00;3.00;;;;;;;;5039915;28;11410;-74
2023/03/28 09:06:56;;;;;;;;;3.00;3.00;;;;;;;;5043735;28;11441;-75
2023/03/28 09:09:33;;;;;;;;;3.50;3.00;;;;;;;;5038749;28;11476;-72
2023/03/28 09:12:11;;;;;;;;;4.00;3.00;;;;;;;;5046595;28;11555;-75
2023/03/28 09:15:05;;;;;;;;;3.25;3.25;;;;;;;;5046308;28;12351;-72
2023/03/28 09:17:41;;;;;;;;;3.50;3.50;;;;;;;;5036548;28;11649;-74
2023/03/28 09:20:16;;;;;;;;;4.75;3.50;;;;;;;;5045909;28;11425;-72
2023/03/28 09:22:56;;;;;;;;;3.75;2.50;;;;;;;;5046540;28;11424;-71
2023/03/28 09:25:31;;;;;;;;;4.00;4.00;;;;;;;;5046382;28;11461;-72
2023/03/28 09:28:06;;;;;;;;;3.00;3.00;;;;;;;;5046464;28;11120;-77
2023/03/28 09:30:36;;;;;;;;;3.00;3.00;;;;;;;;5046307;28;11152;-73
2023/03/28 09:33:06;;;;;;;;;5.00;3.25;;;;;;;;5046574;28;11062;-77
2023/03/28 09:35:35;;;;;;;;;3.00;3.00;;;;;;;;5046830;28;11189;-74
2023/03/28 09:38:04;;;;;;;;;2.50;2.50;;;;;;;;5046140;28;11876;-77
2023/03/28 09:40:32;;;;;;;;;5.75;3.75;;;;;;;;5049403;28;11058;-75
2023/03/28 09:43:06;;;;;;;;;2.00;2.00;;;;;;;;5050370;28;10826;-75
2023/03/28 09:45:51;;;;;;;;;3.00;1.25;;;;;;;;5050613;28;10822;-73
2023/03/28 09:48:22;;;;;;;;;3.00;3.00;;;;;;;;5039436;28;10826;-75
2023/03/28 09:50:54;;;;;;;;;5.00;2.00;;;;;;;;5049396;28;10923;-75
2023/03/28 09:53:24;;;;;;;;;3.25;2.00;;;;;;;;5050232;28;10915;-75
2023/03/28 09:55:52;;;;;;;;;1.50;1.50;;;;;;;;5049188;28;10861;-72
2023/03/28 09:58:19;;;;;;;;;3.00;3.00;;;;;;;;5050473;28;10857;-73
2023/03/28 10:00:49;;;;;;;;;2.50;2.50;;;;;;;;5048661;28;10876;-76
2023/03/28 10:03:30;;;;;;;;;2.50;2.50;;;;;;;;5050020;28;10828;-74
2023/03/28 10:06:00;;;;;;;;;3.00;3.00;;;;;;;;5038802;28;10955;-73
2023/03/28 10:08:31;;;;;;;;;3.00;3.00;;;;;;;;5049761;28;11784;-72
2023/03/28 10:11:05;;;;;;;;;3.00;3.00;;;;;;;;5050077;28;11115;-76
2023/03/28 10:13:41;;;;;;;;;4.25;3.75;;;;;;;;5049707;28;10962;-75
2023/03/28 10:16:10;;;;;;;;;3.00;3.00;;;;;;;;5044093;28;11655;-73
2023/03/28 10:18:38;;;;;;;;;3.75;3.75;;;;;;;;5047232;28;10814;-76
2023/03/28 10:21:12;;;;;;;;;2.00;1.00;;;;;;;;5044220;28;10841;-74
2023/03/28 10:23:41;;;;;;;;;2.00;2.00;;;;;;;;5048732;28;10741;-74
2023/03/28 10:26:10;;;;;;;;;4.00;4.00;;;;;;;;5049676;28;10680;-76
2023/03/28 10:28:37;;;;;;;;;4.50;3.50;;;;;;;;5049151;28;10714;-75
2023/03/28 10:31:06;;;;;;;;;2.75;2.75;;;;;;;;5048697;28;10593;-76
2023/03/28 10:33:34;;;;;;;;;2.00;2.00;;;;;;;;5049538;28;10446;-74
2023/03/28 10:36:03;;;;;;;;;2.25;2.25;;;;;;;;5045055;28;10973;-74
2023/03/28 10:38:40;;;;;;;;;2.00;2.00;;;;;;;;5050004;28;10102;-74
2023/03/28 10:41:11;;;;;;;;;2.00;2.00;;;;;;;;5049698;28;10086;-77
2023/03/28 10:43:39;;;;;;;;;2.25;1.75;;;;;;;;5049542;28;10362;-74
2023/03/28 10:46:15;;;;;;;;;2.75;2.75;;;;;;;;5051370;28;10210;-75
2023/03/28 10:48:47;;;;;;;;;2.50;2.50;;;;;;;;5053617;28;10411;-74
2023/03/28 10:51:17;;;;;;;;;3.00;1.00;;;;;;;;5044791;28;10588;-72
2023/03/28 10:54:11;;;;;;;;;2.00;2.00;;;;;;;;5048962;28;10600;-74
2023/03/28 10:56:41;;;;;;;;;3.25;2.00;;;;;;;;5048756;28;10459;-71
2023/03/28 10:59:19;;;;;;;;;3.00;3.00;;;;;;;;5043776;28;10475;-74
2023/03/28 11:02:16;;;;;;;;;4.50;3.25;;;;;;;;5041622;28;10474;-72
2023/03/28 11:04:55;;;;;;;;;3.75;3.00;;;;;;;;5048479;28;10535;-74
2023/03/28 11:07:31;;;;;;;;;2.00;2.00;;;;;;;;5037822;28;10574;-73
2023/03/28 11:10:07;;;;;;;;;3.00;3.00;;;;;;;;5048485;28;10457;-73
2023/03/28 11:12:43;;;;;;;;;3.00;3.00;;;;;;;;5049018;28;10389;-72
2023/03/28 11:15:16;;;;;;;;;1.75;1.75;;;;;;;;5048259;28;10396;-74
2023/03/28 11:17:52;;;;;;;;;3.00;3.00;;;;;;;;5040377;28;10375;-72
2023/03/28 11:20:43;;;;;;;;;3.25;2.75;;;;;;;;5047956;28;11309;-75
2023/03/28 11:23:27;;;;;;;;;4.00;4.00;;;;;;;;5030371;28;10403;-73
2023/03/28 11:26:03;;;;;;;;;3.00;3.00;;;;;;;;5040801;28;10649;-76
2023/03/28 11:28:39;;;;;;;;;3.25;2.75;;;;;;;;5048282;28;10252;-77
2023/03/28 11:31:10;;;;;;;;;3.25;3.00;;;;;;;;5047654;28;10225;-72
2023/03/28 11:33:47;;;;;;;;;1.00;1.00;;;;;;;;5047449;28;10281;-76
2023/03/28 11:36:17;;;;;;;;;1.00;0.00;;;;;;;;5047158;28;10187;-75
2023/03/28 11:38:50;;;;;;;;;1.00;1.00;;;;;;;;5039489;28;10001;-74
2023/03/28 11:41:21;;;;;;;;;2.00;2.00;;;;;;;;5045129;28;10148;-73
2023/03/28 11:43:51;;;;;;;;;1.25;1.25;;;;;;;;5047297;28;10047;-74
2023/03/28 11:46:22;;;;;;;;;2.75;2.50;;;;;;;;5047605;28;10149;-72
2023/03/28 11:48:53;;;;;;;;;2.00;2.00;;;;;;;;5047009;28;10165;-72
2023/03/28 11:51:25;;;;;;;;;2.75;2.75;;;;;;;;5042031;28;10189;-74
2023/03/28 11:53:57;;;;;;;;;1.75;1.75;;;;;;;;5046785;28;10223;-77
2023/03/28 11:56:32;;;;;;;;;2.00;2.00;;;;;;;;5047041;28;10391;-75
2023/03/28 11:59:03;;;;;;;;;2.00;2.00;;;;;;;;5040757;28;10490;-74
2023/03/28 12:01:32;;;;;;;;;1.50;1.50;;;;;;;;5047568;28;10412;-74
2023/03/28 12:04:04;;;;;;;;;3.25;3.00;;;;;;;;5049168;28;10154;-73
2023/03/28 12:06:35;;;;;;;;;2.00;2.00;;;;;;;;5047988;28;10384;-74
2023/03/28 12:09:10;;;;;;;;;3.00;3.00;;;;;;;;5046943;28;10387;-72
2023/03/28 12:11:42;;;;;;;;;2.25;2.25;;;;;;;;5046889;28;10458;-74
2023/03/28 12:14:40;;;;;;;;;1.25;1.25;;;;;;;;5047451;28;10207;-73
2023/03/28 12:17:16;;;;;;;;;2.75;2.75;;;;;;;;5047375;28;10124;-73
2023/03/28 12:19:47;;;;;;;;;2.75;2.75;;;;;;;;5046886;28;10347;-76
2023/03/28 12:22:20;;;;;;;;;3.25;3.25;;;;;;;;5047391;28;10297;-77
2023/03/28 12:24:53;;;;;;;;;1.50;1.50;;;;;;;;5046944;28;10275;-74
2023/03/28 12:27:28;;;;;;;;;2.00;2.00;;;;;;;;5047563;28;10409;-74
2023/03/28 12:29:59;;;;;;;;;1.25;1.25;;;;;;;;5046695;28;10083;-75
2023/03/28 12:32:40;;;;;;;;;0.00;0.00;;;;;;;;5046892;28;10969;-75
2023/03/28 12:35:14;;;;;;;;;4.00;4.00;;;;;;;;5036296;28;10027;-76
2023/03/28 12:37:53;;;;;;;;;2.25;2.25;;;;;;;;5038280;28;10199;-74
2023/03/28 12:40:26;;;;;;;;;3.00;3.00;;;;;;;;5041497;28;10253;-78
2023/03/28 12:42:56;;;;;;;;;3.00;3.00;;;;;;;;5044163;28;10138;-73
2023/03/28 12:45:36;;;;;;;;;3.00;3.00;;;;;;;;5049001;28;10104;-73
2023/03/28 12:48:11;;;;;;;;;1.00;1.00;;;;;;;;5033679;28;10214;-74
2023/03/28 12:50:45;;;;;;;;;2.50;2.50;;;;;;;;5045652;28;10042;-73
2023/03/28 12:53:16;;;;;;;;;3.00;3.00;;;;;;;;5046851;28;10044;-77
2023/03/28 12:55:48;;;;;;;;;3.50;3.00;;;;;;;;5046802;28;10067;-74
2023/03/28 12:58:25;;;;;;;;;3.50;3.00;;;;;;;;5046934;28;9955;-73
2023/03/28 13:01:26;;;;;;;;;2.00;2.00;;;;;;;;5045552;28;10602;-75
2023/03/28 13:04:08;;;;;;;;;2.00;2.00;;;;;;;;5037686;28;9951;-74
2023/03/28 13:06:46;;;;;;;;;3.25;2.50;;;;;;;;5046356;28;9704;-73
2023/03/28 13:09:37;;;;;;;;;3.00;3.00;;;;;;;;5035300;28;9794;-73
2023/03/28 13:12:23;;;;;;;;;4.50;3.00;;;;;;;;5038237;28;9961;-72
2023/03/28 13:15:01;;;;;;;;;2.25;2.25;;;;;;;;5043216;28;9764;-75
2023/03/28 13:17:30;;;;;;;;;2.75;2.75;;;;;;;;5050716;28;9859;-77
2023/03/28 13:20:09;;;;;;;;;4.25;4.25;;;;;;;;5049162;28;9761;-75
2023/03/28 13:22:43;;;;;;;;;1.00;1.00;;;;;;;;5050530;28;9783;-73
2023/03/28 13:25:26;;;;;;;;;3.50;3.50;;;;;;;;5051205;28;10580;-73
2023/03/28 13:27:55;;;;;;;;;2.25;2.25;;;;;;;;5046095;28;9915;-73
2023/03/28 13:30:28;;;;;;;;;4.50;4.25;;;;;;;;5050241;28;9884;-73
2023/03/28 13:32:57;;;;;;;;;5.00;4.00;;;;;;;;5049597;28;10009;-72
2023/03/28 13:35:39;;;;;;;;;4.75;4.75;;;;;;;;5050619;28;10064;-74
2023/03/28 13:38:23;;;;;;;;;5.75;4.00;;;;;;;;5048300;28;10635;-75
2023/03/28 13:40:54;;;;;;;;;3.00;3.00;;;;;;;;5049098;28;10040;-73
2023/03/28 13:43:26;;;;;;;;;5.00;3.25;;;;;;;;5050110;28;10819;-73
2023/03/28 13:45:57;;;;;;;;;2.50;1.00;;;;;;;;5048988;28;10125;-72
2023/03/28 13:48:29;;;;;;;;;3.00;2.00;;;;;;;;5049478;28;10220;-72
2023/03/28 13:51:00;;;;;;;;;3.00;3.00;;;;;;;;5046078;28;10100;-75
2023/03/28 13:53:31;;;;;;;;;2.25;2.25;;;;;;;;5049419;28;10221;-72
2023/03/28 13:56:21;;;;;;;;;3.75;3.50;;;;;;;;5049229;28;10209;-73
2023/03/28 13:58:50;;;;;;;;;2.25;2.25;;;;;;;;5048883;28;10317;-75
2023/03/28 14:01:23;;;;;;;;;3.00;3.00;;;;;;;;5048992;28;10305;-76
2023/03/28 14:03:54;;;;;;;;;3.00;3.00;;;;;;;;5044090;28;10262;-74
2023/03/28 14:06:23;;;;;;;;;2.50;2.50;;;;;;;;5049717;28;10465;-74
2023/03/28 14:08:52;;;;;;;;;3.00;3.00;;;;;;;;5048999;28;11181;-74
2023/03/28 14:11:22;;;;;;;;;4.50;4.50;;;;;;;;5049160;28;10399;-72
2023/03/28 14:13:51;;;;;;;;;4.00;4.00;;;;;;;;5048420;28;11185;-73
2023/03/28 14:16:20;;;;;;;;;7.00;4.00;;;;;;;;5049011;28;10094;-75
2023/03/28 14:18:49;;;;;;;;;3.00;3.00;;;;;;;;5048855;28;10137;-75
2023/03/28 14:21:16;;;;;;;;;4.25;3.50;;;;;;;;5048725;28;10029;-74
2023/03/28 14:23:56;;;;;;;;;5.75;4.00;;;;;;;;5049486;28;9995;-74
2023/03/28 14:26:26;;;;;;;;;4.75;3.00;;;;;;;;5036293;28;9866;-75
2023/03/28 14:28:59;;;;;;;;;3.00;3.00;;;;;;;;5049981;28;9857;-74
2023/03/28 14:31:39;;;;;;;;;3.00;3.00;;;;;;;;5037092;28;9730;-75
2023/03/28 14:34:24;;;;;;;;;3.00;3.00;;;;;;;;5053129;28;9858;-72
2023/03/28 14:36:57;;;;;;;;;2.75;2.75;;;;;;;;5050869;28;9959;-74
2023/03/28 14:39:25;;;;;;;;;4.75;3.50;;;;;;;;5045003;28;9862;-75
2023/03/28 14:41:54;;;;;;;;;4.00;4.00;;;;;;;;5048738;28;9913;-75
2023/03/28 14:44:24;;;;;;;;;5.75;4.25;;;;;;;;5046226;28;9939;-72
2023/03/28 14:46:56;;;;;;;;;3.00;3.00;;;;;;;;5040888;28;10092;-73
2023/03/28 14:49:25;;;;;;;;;3.50;3.50;;;;;;;;5048473;28;10162;-73
2023/03/28 14:51:57;;;;;;;;;4.00;4.00;;;;;;;;5047524;28;10181;-73
2023/03/28 14:54:28;;;;;;;;;6.00;4.00;;;;;;;;5048212;28;10203;-71
2023/03/28 14:56:57;;;;;;;;;3.50;3.50;;;;;;;;5047696;28;10439;-72
2023/03/28 14:59:31;;;;;;;;;4.75;4.75;;;;;;;;5047840;28;10398;-73
2023/03/28 15:02:01;;;;;;;;;6.00;4.00;;;;;;;;5047380;28;10301;-72
2023/03/28 15:04:29;;;;;;;;;2.25;2.25;;;;;;;;5048221;28;10260;-73
2023/03/28 15:06:57;;;;;;;;;4.00;4.00;;;;;;;;5046882;28;10889;-73